Weather at Auckland International Airport

Public forecast

Using degrees Celsius for public forecast. Weather courtesy of forecast.io.

Current aviation weather report (METAR) for Auckland International Airport

Report is more than 6 hours old.

2022/11/14 15:30 (retrieved 2 years ago)

NZAA 141530Z AUTO 12004KT 9999 NCD 15/15 Q1013 NOSIG

Aviation forecast (TAF) for Auckland International Airport

Forecast is more than 12 hours old.

2023/02/22 21:20 (retrieved 1 year ago)

TAF NZAA 222006Z 2221/2400 26010KT 9999 -SHRA FEW013 SCT025 TEMPO 2222/2304 6000 SHRA PROB30 TEMPO 2301/2304 3000 +SHRA FEW030TCU BECMG 2310/2312 16008KT